Current Conditions
Clear
Conditions



Pressure
30.31 (inHG) - 1026.42 (mb)
Visibility

9.9 (miles) - 16.0 (km)
Temperature
59  °F
Temperature
19  °F
Dewpoint
21  %
 Humidity
Wind Speed
5  mph
4  kts
8  km/h
2.2  m/s
Wind Direction
N
45°
E
90°
135°
S
180°
225°
W
270°
315°
 170°

Due South
Airport Data
KABQ
Albuquerque International Sunport
Metar :KABQ 282252Z AUTO 17004KT 10SM CLR 15/M07 A3031 RMK AO2 SLP236 T01501067
Sun 28th November 16:52 pm
Raw Metar Info
Raw METAR is the most common format in the world for the transmission of observational weather data. It is highly standardized through the International Civil Aviation Organization (ICAO), which allows it to be understood throughout most of the world.
API Info
Data Provided by
https://www.checkwx.com/weather/KABQ

Aviation Weather providing METAR, TAF, AIRMET, SIGMET and OUTLOOK Weather Reports
© Info
CSS/SVG/PHP scripts were developed by weather34.com for use in the weather34 template © 2015-2021

Guide Info provided by Metar-Wikipedia